sensor_id;sensor_type;location;lat;lon;timestamp;P1;durP1;ratioP1;P2;durP2;ratioP2
18298;SDS011;9275;48.690;9.686;2024-01-07T00:03:04;2.67;;;0.93;;
18298;SDS011;9275;48.690;9.686;2024-01-07T00:08:09;0.53;;;0.40;;
18298;SDS011;9275;48.690;9.686;2024-01-07T00:13:13;0.87;;;0.50;;
18298;SDS011;9275;48.690;9.686;2024-01-07T00:18:19;1.90;;;0.73;;
18298;SDS011;9275;48.690;9.686;2024-01-07T00:23:24;0.50;;;0.50;;
18298;SDS011;9275;48.690;9.686;2024-01-07T00:28:29;1.90;;;0.67;;
18298;SDS011;9275;48.690;9.686;2024-01-07T00:33:35;1.97;;;0.87;;
18298;SDS011;9275;48.690;9.686;2024-01-07T00:38:40;1.80;;;0.80;;
18298;SDS011;9275;48.690;9.686;2024-01-07T00:43:46;2.43;;;0.70;;
18298;SDS011;9275;48.690;9.686;2024-01-07T00:48:51;1.00;;;0.60;;
18298;SDS011;9275;48.690;9.686;2024-01-07T00:53:56;0.70;;;0.50;;
18298;SDS011;9275;48.690;9.686;2024-01-07T00:59:01;0.97;;;0.57;;
18298;SDS011;9275;48.690;9.686;2024-01-07T01:04:06;2.63;;;0.83;;
18298;SDS011;9275;48.690;9.686;2024-01-07T01:09:11;2.73;;;0.70;;
18298;SDS011;9275;48.690;9.686;2024-01-07T01:14:16;1.97;;;0.53;;
18298;SDS011;9275;48.690;9.686;2024-01-07T01:19:22;1.93;;;0.53;;
18298;SDS011;9275;48.690;9.686;2024-01-07T01:24:27;3.30;;;0.90;;
18298;SDS011;9275;48.690;9.686;2024-01-07T01:29:32;5.23;;;1.03;;
18298;SDS011;9275;48.690;9.686;2024-01-07T01:34:38;2.07;;;0.80;;
18298;SDS011;9275;48.690;9.686;2024-01-07T01:39:43;1.90;;;0.67;;
18298;SDS011;9275;48.690;9.686;2024-01-07T01:44:48;3.10;;;0.60;;
18298;SDS011;9275;48.690;9.686;2024-01-07T01:49:54;1.60;;;0.87;;
18298;SDS011;9275;48.690;9.686;2024-01-07T01:54:58;1.20;;;0.50;;
18298;SDS011;9275;48.690;9.686;2024-01-07T02:00:04;3.23;;;0.97;;
18298;SDS011;9275;48.690;9.686;2024-01-07T02:05:12;5.63;;;1.00;;
18298;SDS011;9275;48.690;9.686;2024-01-07T02:10:16;1.80;;;0.83;;
18298;SDS011;9275;48.690;9.686;2024-01-07T02:15:21;2.47;;;0.73;;
18298;SDS011;9275;48.690;9.686;2024-01-07T02:20:27;1.67;;;0.70;;
18298;SDS011;9275;48.690;9.686;2024-01-07T02:25:35;1.47;;;0.80;;
18298;SDS011;9275;48.690;9.686;2024-01-07T02:30:40;3.57;;;0.90;;
18298;SDS011;9275;48.690;9.686;2024-01-07T02:35:45;1.93;;;1.10;;
18298;SDS011;9275;48.690;9.686;2024-01-07T02:40:51;3.20;;;1.03;;
18298;SDS011;9275;48.690;9.686;2024-01-07T02:45:55;5.07;;;1.27;;
18298;SDS011;9275;48.690;9.686;2024-01-07T02:51:00;2.93;;;0.80;;
18298;SDS011;9275;48.690;9.686;2024-01-07T02:56:07;2.90;;;0.77;;
18298;SDS011;9275;48.690;9.686;2024-01-07T03:01:12;3.73;;;1.00;;
18298;SDS011;9275;48.690;9.686;2024-01-07T03:06:16;1.40;;;0.97;;
18298;SDS011;9275;48.690;9.686;2024-01-07T03:11:22;2.47;;;1.00;;
18298;SDS011;9275;48.690;9.686;2024-01-07T03:16:27;2.00;;;0.97;;
18298;SDS011;9275;48.690;9.686;2024-01-07T03:21:31;2.43;;;1.20;;
18298;SDS011;9275;48.690;9.686;2024-01-07T03:26:37;3.90;;;0.77;;
18298;SDS011;9275;48.690;9.686;2024-01-07T03:31:42;0.80;;;0.60;;
18298;SDS011;9275;48.690;9.686;2024-01-07T03:36:46;2.87;;;1.30;;
18298;SDS011;9275;48.690;9.686;2024-01-07T03:41:55;1.97;;;1.13;;
18298;SDS011;9275;48.690;9.686;2024-01-07T03:47:00;3.23;;;1.27;;
18298;SDS011;9275;48.690;9.686;2024-01-07T03:52:04;1.90;;;0.90;;
18298;SDS011;9275;48.690;9.686;2024-01-07T03:57:11;10.73;;;1.20;;
18298;SDS011;9275;48.690;9.686;2024-01-07T04:02:15;3.43;;;1.20;;
18298;SDS011;9275;48.690;9.686;2024-01-07T04:07:20;2.40;;;0.90;;
18298;SDS011;9275;48.690;9.686;2024-01-07T04:12:25;7.80;;;1.50;;
18298;SDS011;9275;48.690;9.686;2024-01-07T04:17:30;4.53;;;1.90;;
18298;SDS011;9275;48.690;9.686;2024-01-07T04:22:34;2.17;;;1.00;;
18298;SDS011;9275;48.690;9.686;2024-01-07T04:27:40;2.77;;;1.07;;
18298;SDS011;9275;48.690;9.686;2024-01-07T04:32:44;2.50;;;1.67;;
18298;SDS011;9275;48.690;9.686;2024-01-07T04:37:49;6.90;;;1.20;;
18298;SDS011;9275;48.690;9.686;2024-01-07T04:42:55;3.17;;;1.20;;
18298;SDS011;9275;48.690;9.686;2024-01-07T04:47:59;5.43;;;1.07;;
18298;SDS011;9275;48.690;9.686;2024-01-07T04:53:04;4.67;;;1.50;;
18298;SDS011;9275;48.690;9.686;2024-01-07T04:58:10;6.27;;;0.83;;
18298;SDS011;9275;48.690;9.686;2024-01-07T05:03:14;3.60;;;1.30;;
18298;SDS011;9275;48.690;9.686;2024-01-07T05:08:18;2.60;;;0.90;;
18298;SDS011;9275;48.690;9.686;2024-01-07T05:13:29;2.83;;;0.97;;
18298;SDS011;9275;48.690;9.686;2024-01-07T05:18:33;5.27;;;1.27;;
18298;SDS011;9275;48.690;9.686;2024-01-07T05:23:39;4.43;;;1.30;;
18298;SDS011;9275;48.690;9.686;2024-01-07T05:28:45;5.77;;;1.20;;
18298;SDS011;9275;48.690;9.686;2024-01-07T05:33:49;3.33;;;1.23;;
18298;SDS011;9275;48.690;9.686;2024-01-07T05:38:54;3.33;;;1.30;;
18298;SDS011;9275;48.690;9.686;2024-01-07T05:44:00;2.07;;;1.10;;
18298;SDS011;9275;48.690;9.686;2024-01-07T05:49:04;2.20;;;1.03;;
18298;SDS011;9275;48.690;9.686;2024-01-07T05:54:08;2.40;;;1.07;;
18298;SDS011;9275;48.690;9.686;2024-01-07T05:59:14;4.47;;;1.47;;
18298;SDS011;9275;48.690;9.686;2024-01-07T06:04:19;6.73;;;1.80;;
18298;SDS011;9275;48.690;9.686;2024-01-07T06:09:23;4.03;;;1.40;;
18298;SDS011;9275;48.690;9.686;2024-01-07T06:14:30;2.63;;;1.30;;
18298;SDS011;9275;48.690;9.686;2024-01-07T06:19:34;2.43;;;0.97;;
18298;SDS011;9275;48.690;9.686;2024-01-07T06:24:38;4.83;;;1.50;;
18298;SDS011;9275;48.690;9.686;2024-01-07T06:29:44;2.77;;;1.20;;
18298;SDS011;9275;48.690;9.686;2024-01-07T06:34:49;3.67;;;1.30;;
18298;SDS011;9275;48.690;9.686;2024-01-07T06:39:54;2.10;;;1.20;;
18298;SDS011;9275;48.690;9.686;2024-01-07T06:45:00;4.23;;;1.10;;
18298;SDS011;9275;48.690;9.686;2024-01-07T06:50:05;2.70;;;1.50;;
18298;SDS011;9275;48.690;9.686;2024-01-07T06:55:10;4.03;;;1.40;;
18298;SDS011;9275;48.690;9.686;2024-01-07T07:00:17;6.43;;;1.40;;
18298;SDS011;9275;48.690;9.686;2024-01-07T07:05:21;4.47;;;1.30;;
18298;SDS011;9275;48.690;9.686;2024-01-07T07:10:26;2.90;;;1.00;;
18298;SDS011;9275;48.690;9.686;2024-01-07T07:15:32;4.40;;;1.60;;
18298;SDS011;9275;48.690;9.686;2024-01-07T07:20:36;7.97;;;1.83;;
18298;SDS011;9275;48.690;9.686;2024-01-07T07:25:41;6.87;;;1.23;;
18298;SDS011;9275;48.690;9.686;2024-01-07T07:30:46;4.03;;;1.53;;
18298;SDS011;9275;48.690;9.686;2024-01-07T07:35:53;4.53;;;1.70;;
18298;SDS011;9275;48.690;9.686;2024-01-07T07:40:57;2.67;;;1.27;;
18298;SDS011;9275;48.690;9.686;2024-01-07T07:46:04;2.60;;;1.43;;
18298;SDS011;9275;48.690;9.686;2024-01-07T07:51:09;4.93;;;1.80;;
18298;SDS011;9275;48.690;9.686;2024-01-07T07:56:14;4.63;;;1.67;;
18298;SDS011;9275;48.690;9.686;2024-01-07T08:01:20;21.40;;;2.83;;
18298;SDS011;9275;48.690;9.686;2024-01-07T08:06:24;3.03;;;1.33;;
18298;SDS011;9275;48.690;9.686;2024-01-07T08:11:29;3.53;;;1.90;;
18298;SDS011;9275;48.690;9.686;2024-01-07T08:16:35;31.50;;;2.33;;
18298;SDS011;9275;48.690;9.686;2024-01-07T08:21:40;5.37;;;2.10;;
18298;SDS011;9275;48.690;9.686;2024-01-07T08:26:44;11.17;;;1.80;;
18298;SDS011;9275;48.690;9.686;2024-01-07T08:31:50;4.40;;;1.57;;
18298;SDS011;9275;48.690;9.686;2024-01-07T08:36:55;8.77;;;2.70;;
18298;SDS011;9275;48.690;9.686;2024-01-07T08:41:59;10.77;;;1.67;;
18298;SDS011;9275;48.690;9.686;2024-01-07T08:47:07;5.50;;;2.27;;
18298;SDS011;9275;48.690;9.686;2024-01-07T08:52:11;6.67;;;2.40;;
18298;SDS011;9275;48.690;9.686;2024-01-07T08:57:16;4.60;;;2.10;;
18298;SDS011;9275;48.690;9.686;2024-01-07T09:02:22;3.23;;;1.50;;
18298;SDS011;9275;48.690;9.686;2024-01-07T09:07:26;3.67;;;1.63;;
18298;SDS011;9275;48.690;9.686;2024-01-07T09:12:30;7.10;;;2.20;;
18298;SDS011;9275;48.690;9.686;2024-01-07T09:17:37;5.60;;;2.13;;
18298;SDS011;9275;48.690;9.686;2024-01-07T09:22:43;4.67;;;1.80;;
18298;SDS011;9275;48.690;9.686;2024-01-07T09:27:47;3.27;;;1.57;;
18298;SDS011;9275;48.690;9.686;2024-01-07T09:32:53;4.00;;;1.67;;
18298;SDS011;9275;48.690;9.686;2024-01-07T09:37:57;4.07;;;1.60;;
18298;SDS011;9275;48.690;9.686;2024-01-07T09:43:02;4.00;;;1.70;;
18298;SDS011;9275;48.690;9.686;2024-01-07T09:48:08;6.87;;;1.80;;
18298;SDS011;9275;48.690;9.686;2024-01-07T09:53:14;4.23;;;1.73;;
18298;SDS011;9275;48.690;9.686;2024-01-07T09:58:19;3.90;;;1.67;;
18298;SDS011;9275;48.690;9.686;2024-01-07T10:03:26;3.97;;;2.13;;
18298;SDS011;9275;48.690;9.686;2024-01-07T10:08:31;6.73;;;2.23;;
18298;SDS011;9275;48.690;9.686;2024-01-07T10:13:36;6.33;;;2.47;;
18298;SDS011;9275;48.690;9.686;2024-01-07T10:18:42;8.27;;;2.40;;
18298;SDS011;9275;48.690;9.686;2024-01-07T10:23:47;4.70;;;1.90;;
18298;SDS011;9275;48.690;9.686;2024-01-07T10:28:51;6.77;;;2.40;;
18298;SDS011;9275;48.690;9.686;2024-01-07T10:33:58;16.67;;;5.07;;
18298;SDS011;9275;48.690;9.686;2024-01-07T10:39:03;12.77;;;4.50;;
18298;SDS011;9275;48.690;9.686;2024-01-07T10:44:07;16.73;;;6.33;;
18298;SDS011;9275;48.690;9.686;2024-01-07T10:49:14;5.23;;;2.53;;
18298;SDS011;9275;48.690;9.686;2024-01-07T10:54:23;3.90;;;1.63;;
18298;SDS011;9275;48.690;9.686;2024-01-07T10:59:32;4.67;;;1.67;;
18298;SDS011;9275;48.690;9.686;2024-01-07T11:04:42;3.80;;;1.40;;
18298;SDS011;9275;48.690;9.686;2024-01-07T11:10:00;3.97;;;1.93;;
18298;SDS011;9275;48.690;9.686;2024-01-07T11:15:09;4.90;;;1.70;;
18298;SDS011;9275;48.690;9.686;2024-01-07T11:20:19;19.17;;;2.00;;
18298;SDS011;9275;48.690;9.686;2024-01-07T11:25:28;2.53;;;1.17;;
18298;SDS011;9275;48.690;9.686;2024-01-07T11:30:37;20.43;;;2.00;;
18298;SDS011;9275;48.690;9.686;2024-01-07T11:35:55;5.27;;;1.93;;
18298;SDS011;9275;48.690;9.686;2024-01-07T11:41:00;2.10;;;1.27;;
18298;SDS011;9275;48.690;9.686;2024-01-07T11:46:07;2.53;;;1.27;;
18298;SDS011;9275;48.690;9.686;2024-01-07T11:51:15;5.53;;;1.90;;
18298;SDS011;9275;48.690;9.686;2024-01-07T11:56:20;4.47;;;1.60;;
18298;SDS011;9275;48.690;9.686;2024-01-07T12:01:24;3.30;;;1.80;;
18298;SDS011;9275;48.690;9.686;2024-01-07T12:06:31;3.40;;;1.87;;
18298;SDS011;9275;48.690;9.686;2024-01-07T12:11:35;3.20;;;1.87;;
18298;SDS011;9275;48.690;9.686;2024-01-07T12:16:45;4.97;;;1.93;;
18298;SDS011;9275;48.690;9.686;2024-01-07T12:21:56;4.30;;;1.90;;
18298;SDS011;9275;48.690;9.686;2024-01-07T12:27:06;4.93;;;1.90;;
18298;SDS011;9275;48.690;9.686;2024-01-07T12:32:10;3.80;;;1.73;;
18298;SDS011;9275;48.690;9.686;2024-01-07T12:37:16;4.20;;;1.63;;
18298;SDS011;9275;48.690;9.686;2024-01-07T12:42:21;6.30;;;1.53;;
18298;SDS011;9275;48.690;9.686;2024-01-07T12:47:26;3.80;;;1.70;;
18298;SDS011;9275;48.690;9.686;2024-01-07T12:52:32;4.97;;;2.37;;
18298;SDS011;9275;48.690;9.686;2024-01-07T12:57:36;3.80;;;2.00;;
18298;SDS011;9275;48.690;9.686;2024-01-07T13:02:41;5.03;;;2.00;;
18298;SDS011;9275;48.690;9.686;2024-01-07T13:07:47;4.17;;;2.17;;
18298;SDS011;9275;48.690;9.686;2024-01-07T13:12:52;4.70;;;2.03;;
18298;SDS011;9275;48.690;9.686;2024-01-07T13:18:08;4.93;;;2.10;;
18298;SDS011;9275;48.690;9.686;2024-01-07T13:23:16;5.77;;;2.10;;
18298;SDS011;9275;48.690;9.686;2024-01-07T13:28:21;6.30;;;2.20;;
18298;SDS011;9275;48.690;9.686;2024-01-07T13:33:26;4.63;;;2.30;;
18298;SDS011;9275;48.690;9.686;2024-01-07T13:38:32;6.23;;;2.27;;
18298;SDS011;9275;48.690;9.686;2024-01-07T13:43:36;6.63;;;2.40;;
18298;SDS011;9275;48.690;9.686;2024-01-07T13:48:42;6.23;;;2.50;;
18298;SDS011;9275;48.690;9.686;2024-01-07T13:53:49;4.60;;;2.03;;
18298;SDS011;9275;48.690;9.686;2024-01-07T13:58:53;6.13;;;2.40;;
18298;SDS011;9275;48.690;9.686;2024-01-07T14:03:58;4.70;;;2.30;;
18298;SDS011;9275;48.690;9.686;2024-01-07T14:09:06;5.87;;;2.80;;
18298;SDS011;9275;48.690;9.686;2024-01-07T14:14:11;3.97;;;2.40;;
18298;SDS011;9275;48.690;9.686;2024-01-07T14:19:16;5.70;;;2.20;;
18298;SDS011;9275;48.690;9.686;2024-01-07T14:24:22;5.23;;;2.30;;
18298;SDS011;9275;48.690;9.686;2024-01-07T14:29:26;7.00;;;2.37;;
18298;SDS011;9275;48.690;9.686;2024-01-07T14:34:31;6.27;;;2.30;;
18298;SDS011;9275;48.690;9.686;2024-01-07T14:39:37;5.17;;;2.20;;
18298;SDS011;9275;48.690;9.686;2024-01-07T14:44:42;4.30;;;2.13;;
18298;SDS011;9275;48.690;9.686;2024-01-07T14:49:52;4.47;;;2.10;;
18298;SDS011;9275;48.690;9.686;2024-01-07T14:54:58;6.27;;;2.50;;
18298;SDS011;9275;48.690;9.686;2024-01-07T15:00:02;4.97;;;2.50;;
18298;SDS011;9275;48.690;9.686;2024-01-07T15:05:08;5.60;;;2.10;;
18298;SDS011;9275;48.690;9.686;2024-01-07T15:10:16;6.07;;;2.10;;
18298;SDS011;9275;48.690;9.686;2024-01-07T15:15:21;4.23;;;1.97;;
18298;SDS011;9275;48.690;9.686;2024-01-07T15:20:29;6.50;;;2.17;;
18298;SDS011;9275;48.690;9.686;2024-01-07T15:25:35;3.20;;;1.73;;
18298;SDS011;9275;48.690;9.686;2024-01-07T15:30:39;3.97;;;1.90;;
18298;SDS011;9275;48.690;9.686;2024-01-07T15:35:44;4.83;;;2.10;;
18298;SDS011;9275;48.690;9.686;2024-01-07T15:40:50;5.80;;;2.10;;
18298;SDS011;9275;48.690;9.686;2024-01-07T15:45:54;3.73;;;1.67;;
18298;SDS011;9275;48.690;9.686;2024-01-07T15:50:58;6.00;;;2.37;;
18298;SDS011;9275;48.690;9.686;2024-01-07T15:56:05;3.77;;;1.70;;
18298;SDS011;9275;48.690;9.686;2024-01-07T16:01:09;3.57;;;1.30;;
18298;SDS011;9275;48.690;9.686;2024-01-07T16:06:14;2.33;;;1.30;;
18298;SDS011;9275;48.690;9.686;2024-01-07T16:11:20;4.07;;;1.57;;
18298;SDS011;9275;48.690;9.686;2024-01-07T16:16:24;3.13;;;1.73;;
18298;SDS011;9275;48.690;9.686;2024-01-07T16:21:29;4.47;;;1.57;;
18298;SDS011;9275;48.690;9.686;2024-01-07T16:26:35;6.43;;;2.10;;
18298;SDS011;9275;48.690;9.686;2024-01-07T16:31:39;4.63;;;1.83;;
18298;SDS011;9275;48.690;9.686;2024-01-07T16:36:44;4.23;;;1.80;;
18298;SDS011;9275;48.690;9.686;2024-01-07T16:41:50;2.03;;;1.10;;
18298;SDS011;9275;48.690;9.686;2024-01-07T16:46:57;4.80;;;1.57;;
18298;SDS011;9275;48.690;9.686;2024-01-07T16:52:02;5.80;;;2.00;;
18298;SDS011;9275;48.690;9.686;2024-01-07T16:57:08;3.10;;;1.60;;
18298;SDS011;9275;48.690;9.686;2024-01-07T17:02:12;4.20;;;1.53;;
18298;SDS011;9275;48.690;9.686;2024-01-07T17:07:17;6.37;;;2.20;;
18298;SDS011;9275;48.690;9.686;2024-01-07T17:12:23;5.30;;;1.80;;
18298;SDS011;9275;48.690;9.686;2024-01-07T17:17:28;3.33;;;1.57;;
18298;SDS011;9275;48.690;9.686;2024-01-07T17:22:32;4.13;;;1.50;;
18298;SDS011;9275;48.690;9.686;2024-01-07T17:27:38;4.87;;;1.47;;
18298;SDS011;9275;48.690;9.686;2024-01-07T17:32:45;3.13;;;1.50;;
18298;SDS011;9275;48.690;9.686;2024-01-07T17:37:53;3.23;;;1.63;;
18298;SDS011;9275;48.690;9.686;2024-01-07T17:42:59;5.03;;;1.60;;
18298;SDS011;9275;48.690;9.686;2024-01-07T17:48:06;3.80;;;1.63;;
18298;SDS011;9275;48.690;9.686;2024-01-07T17:53:10;4.63;;;2.00;;
18298;SDS011;9275;48.690;9.686;2024-01-07T17:58:18;3.97;;;1.90;;
18298;SDS011;9275;48.690;9.686;2024-01-07T18:03:22;6.63;;;1.93;;
18298;SDS011;9275;48.690;9.686;2024-01-07T18:08:27;4.07;;;1.67;;
18298;SDS011;9275;48.690;9.686;2024-01-07T18:13:44;3.77;;;1.53;;
18298;SDS011;9275;48.690;9.686;2024-01-07T18:18:49;2.83;;;1.70;;
18298;SDS011;9275;48.690;9.686;2024-01-07T18:23:53;4.13;;;1.60;;
18298;SDS011;9275;48.690;9.686;2024-01-07T18:28:59;5.30;;;1.90;;
18298;SDS011;9275;48.690;9.686;2024-01-07T18:34:04;3.40;;;1.47;;
18298;SDS011;9275;48.690;9.686;2024-01-07T18:39:08;4.07;;;1.83;;
18298;SDS011;9275;48.690;9.686;2024-01-07T18:44:14;3.83;;;1.63;;
18298;SDS011;9275;48.690;9.686;2024-01-07T18:49:19;4.73;;;1.60;;
18298;SDS011;9275;48.690;9.686;2024-01-07T18:54:23;3.03;;;1.17;;
18298;SDS011;9275;48.690;9.686;2024-01-07T18:59:31;2.63;;;1.10;;
18298;SDS011;9275;48.690;9.686;2024-01-07T19:04:36;2.77;;;1.20;;
18298;SDS011;9275;48.690;9.686;2024-01-07T19:09:41;3.53;;;1.40;;
18298;SDS011;9275;48.690;9.686;2024-01-07T19:14:47;2.90;;;1.20;;
18298;SDS011;9275;48.690;9.686;2024-01-07T19:19:51;3.70;;;1.50;;
18298;SDS011;9275;48.690;9.686;2024-01-07T19:24:55;4.53;;;1.30;;
18298;SDS011;9275;48.690;9.686;2024-01-07T19:30:01;2.10;;;1.00;;
18298;SDS011;9275;48.690;9.686;2024-01-07T19:35:07;3.53;;;1.23;;
18298;SDS011;9275;48.690;9.686;2024-01-07T19:40:12;3.13;;;1.23;;
18298;SDS011;9275;48.690;9.686;2024-01-07T19:45:18;2.57;;;1.30;;
18298;SDS011;9275;48.690;9.686;2024-01-07T19:50:22;2.33;;;1.37;;
18298;SDS011;9275;48.690;9.686;2024-01-07T19:55:32;2.07;;;1.00;;
18298;SDS011;9275;48.690;9.686;2024-01-07T20:00:43;2.63;;;1.13;;
18298;SDS011;9275;48.690;9.686;2024-01-07T20:05:48;1.80;;;1.13;;
18298;SDS011;9275;48.690;9.686;2024-01-07T20:10:53;1.10;;;0.73;;
18298;SDS011;9275;48.690;9.686;2024-01-07T20:16:00;2.43;;;1.20;;
18298;SDS011;9275;48.690;9.686;2024-01-07T20:21:05;3.40;;;1.37;;
18298;SDS011;9275;48.690;9.686;2024-01-07T20:26:10;2.43;;;1.20;;
18298;SDS011;9275;48.690;9.686;2024-01-07T20:31:16;3.47;;;1.33;;
18298;SDS011;9275;48.690;9.686;2024-01-07T20:36:20;1.03;;;0.80;;
18298;SDS011;9275;48.690;9.686;2024-01-07T20:41:25;1.33;;;0.80;;
18298;SDS011;9275;48.690;9.686;2024-01-07T20:46:31;3.27;;;0.90;;
18298;SDS011;9275;48.690;9.686;2024-01-07T20:51:37;2.67;;;1.17;;
18298;SDS011;9275;48.690;9.686;2024-01-07T20:56:41;4.07;;;1.20;;
18298;SDS011;9275;48.690;9.686;2024-01-07T21:01:47;5.40;;;1.90;;
18298;SDS011;9275;48.690;9.686;2024-01-07T21:06:52;4.30;;;1.70;;
18298;SDS011;9275;48.690;9.686;2024-01-07T21:11:56;7.13;;;2.70;;
18298;SDS011;9275;48.690;9.686;2024-01-07T21:17:02;5.73;;;2.00;;
18298;SDS011;9275;48.690;9.686;2024-01-07T21:22:08;8.03;;;2.53;;
18298;SDS011;9275;48.690;9.686;2024-01-07T21:27:15;3.80;;;1.60;;
18298;SDS011;9275;48.690;9.686;2024-01-07T21:32:21;3.77;;;1.33;;
18298;SDS011;9275;48.690;9.686;2024-01-07T21:37:28;4.90;;;2.47;;
18298;SDS011;9275;48.690;9.686;2024-01-07T21:42:32;5.87;;;1.97;;
18298;SDS011;9275;48.690;9.686;2024-01-07T21:47:38;2.70;;;1.40;;
18298;SDS011;9275;48.690;9.686;2024-01-07T21:52:50;3.47;;;1.27;;
18298;SDS011;9275;48.690;9.686;2024-01-07T21:57:56;2.63;;;2.20;;
18298;SDS011;9275;48.690;9.686;2024-01-07T22:03:02;2.20;;;1.20;;
18298;SDS011;9275;48.690;9.686;2024-01-07T22:08:06;2.87;;;1.63;;
18298;SDS011;9275;48.690;9.686;2024-01-07T22:13:12;5.57;;;1.80;;
18298;SDS011;9275;48.690;9.686;2024-01-07T22:18:17;3.10;;;0.63;;
18298;SDS011;9275;48.690;9.686;2024-01-07T22:23:22;4.50;;;1.83;;
18298;SDS011;9275;48.690;9.686;2024-01-07T22:28:27;1.33;;;0.87;;
18298;SDS011;9275;48.690;9.686;2024-01-07T22:33:33;3.63;;;1.63;;
18298;SDS011;9275;48.690;9.686;2024-01-07T22:38:37;7.33;;;1.70;;
18298;SDS011;9275;48.690;9.686;2024-01-07T22:43:42;3.23;;;1.20;;
18298;SDS011;9275;48.690;9.686;2024-01-07T22:48:48;1.60;;;1.00;;
18298;SDS011;9275;48.690;9.686;2024-01-07T22:53:52;0.83;;;0.57;;
18298;SDS011;9275;48.690;9.686;2024-01-07T22:58:57;2.50;;;0.60;;
18298;SDS011;9275;48.690;9.686;2024-01-07T23:04:03;2.20;;;0.77;;
18298;SDS011;9275;48.690;9.686;2024-01-07T23:09:07;1.37;;;0.60;;
18298;SDS011;9275;48.690;9.686;2024-01-07T23:14:13;3.67;;;0.80;;
18298;SDS011;9275;48.690;9.686;2024-01-07T23:19:19;2.20;;;0.70;;
18298;SDS011;9275;48.690;9.686;2024-01-07T23:24:23;1.60;;;0.83;;
18298;SDS011;9275;48.690;9.686;2024-01-07T23:29:28;2.93;;;0.83;;
18298;SDS011;9275;48.690;9.686;2024-01-07T23:34:34;3.00;;;1.43;;
18298;SDS011;9275;48.690;9.686;2024-01-07T23:39:40;2.23;;;1.00;;
18298;SDS011;9275;48.690;9.686;2024-01-07T23:44:44;1.90;;;0.60;;
18298;SDS011;9275;48.690;9.686;2024-01-07T23:49:50;2.23;;;0.90;;
18298;SDS011;9275;48.690;9.686;2024-01-07T23:54:54;2.67;;;0.73;;
18298;SDS011;9275;48.690;9.686;2024-01-07T23:59:59;0.93;;;0.90;;
